Time;durP1;ratioP1;P1;durP2;ratioP2;P2;SDS_P1;SDS_P2;PMS_P1;PMS_P2;Temp;Humidity;BMP_temperature;BMP_pressure;BME280_temperature;BME280_humidity;BME280_pressure;Samples;Min_cycle;Max_cycle;Signal;HPM_P1;HPM_P2
2021/11/18 00:02:01;;;;;;;;;;;8.70;99.90;;;;;;5094913;28;19924;-74
2021/11/18 00:04:28;;;;;;;;;;;8.70;99.90;;;;;;5094782;28;19924;-74
2021/11/18 00:06:54;;;;;;;;;;;8.70;99.90;;;;;;5095039;28;19924;-74
2021/11/18 00:09:23;;;;;;;;;;;8.70;99.90;;;;;;5094902;28;19987;-74
2021/11/18 00:11:50;;;;;;;;;;;8.60;99.90;;;;;;5094873;28;19934;-74
2021/11/18 00:14:17;;;;;;;;;;;8.60;99.90;;;;;;5094869;28;19924;-74
2021/11/18 00:16:45;;;;;;;;;;;8.60;99.90;;;;;;5094752;28;19924;-74
2021/11/18 00:19:11;;;;;;;;;;;8.60;99.90;;;;;;5094849;28;19932;-74
2021/11/18 00:21:38;;;;;;;;;;;8.60;99.90;;;;;;5094771;28;19935;-74
2021/11/18 00:24:06;;;;;;;;;;;8.50;99.90;;;;;;5094756;28;19943;-74
2021/11/18 00:26:34;;;;;;;;;;;8.50;99.90;;;;;;5094799;28;19924;-74
2021/11/18 00:29:01;;;;;;;;;;;8.60;99.90;;;;;;5094544;28;19924;-74
2021/11/18 00:31:28;;;;;;;;;;;8.50;99.90;;;;;;5094699;28;19924;-74
2021/11/18 00:33:55;;;;;;;;;;;8.60;99.90;;;;;;5096024;28;19924;-74
2021/11/18 00:36:22;;;;;;;;;;;8.60;99.90;;;;;;5098143;28;19936;-74
2021/11/18 00:38:49;;;;;;;;;;;8.70;99.90;;;;;;5098392;28;19934;-74
2021/11/18 00:41:16;;;;;;;;;;;8.70;99.90;;;;;;5098301;28;19928;-74
2021/11/18 00:43:44;;;;;;;;;;;8.70;99.90;;;;;;5098513;28;19954;-74
2021/11/18 00:46:11;;;;;;;;;;;8.80;99.90;;;;;;5097900;28;19924;-74
2021/11/18 00:48:39;;;;;;;;;;;8.80;99.90;;;;;;5098049;28;19934;-74
2021/11/18 00:51:06;;;;;;;;;;;8.80;99.90;;;;;;5098039;28;19975;-74
2021/11/18 00:53:33;;;;;;;;;;;8.80;99.90;;;;;;5098062;28;19924;-74
2021/11/18 00:56:00;;;;;;;;;;;8.90;99.90;;;;;;5098052;28;19924;-74
2021/11/18 00:58:27;;;;;;;;;;;8.90;99.90;;;;;;5098034;28;19934;-74
2021/11/18 01:00:55;;;;;;;;;;;8.90;99.90;;;;;;5097926;28;19934;-74
2021/11/18 01:03:22;;;;;;;;;;;8.90;99.90;;;;;;5097520;28;19928;-74
2021/11/18 01:05:50;;;;;;;;;;;8.90;99.90;;;;;;5097516;28;19956;-74
2021/11/18 01:08:17;;;;;;;;;;;8.90;99.90;;;;;;5097796;28;19931;-74
2021/11/18 01:10:44;;;;;;;;;;;8.90;99.90;;;;;;5097765;28;19936;-74
2021/11/18 01:13:11;;;;;;;;;;;8.90;99.90;;;;;;5097724;28;20340;-74
2021/11/18 01:15:39;;;;;;;;;;;8.90;99.90;;;;;;5097466;28;19924;-74
2021/11/18 01:18:07;;;;;;;;;;;8.90;99.90;;;;;;5097339;28;19924;-74
2021/11/18 01:20:34;;;;;;;;;;;8.90;99.90;;;;;;5096991;28;19924;-74
2021/11/18 01:23:01;;;;;;;;;;;8.90;99.90;;;;;;5097260;28;20366;-74
2021/11/18 01:25:28;;;;;;;;;;;8.90;99.90;;;;;;5097716;28;19935;-74
2021/11/18 01:27:55;;;;;;;;;;;8.90;99.90;;;;;;5096675;28;19935;-74
2021/11/18 01:30:22;;;;;;;;;;;8.90;99.90;;;;;;5096303;28;19950;-74
2021/11/18 01:32:49;;;;;;;;;;;8.90;99.90;;;;;;5097235;28;19931;-74
2021/11/18 01:35:17;;;;;;;;;;;8.90;99.90;;;;;;5097251;28;19935;-74
2021/11/18 01:37:44;;;;;;;;;;;8.90;99.90;;;;;;5096923;28;20241;-74
2021/11/18 01:40:12;;;;;;;;;;;8.90;99.90;;;;;;5096869;28;20348;-74
2021/11/18 01:42:39;;;;;;;;;;;8.90;99.90;;;;;;5097184;28;19924;-74
2021/11/18 01:45:06;;;;;;;;;;;8.90;99.90;;;;;;5095708;28;19951;-74
2021/11/18 01:47:33;;;;;;;;;;;8.90;99.90;;;;;;5096939;28;19928;-74
2021/11/18 01:50:00;;;;;;;;;;;8.90;99.90;;;;;;5096951;28;19924;-74
2021/11/18 01:52:28;;;;;;;;;;;8.90;99.90;;;;;;5096996;28;20267;-73
2021/11/18 01:54:55;;;;;;;;;;;9.00;99.90;;;;;;5096718;28;19924;-74
2021/11/18 01:57:24;;;;;;;;;;;9.00;99.90;;;;;;5096787;28;19928;-73
2021/11/18 01:59:51;;;;;;;;;;;9.00;99.90;;;;;;5096467;28;19967;-74
2021/11/18 02:02:18;;;;;;;;;;;9.00;99.90;;;;;;5096453;28;19924;-74
2021/11/18 02:04:48;;;;;;;;;;;9.10;99.90;;;;;;5096688;28;19934;-74
2021/11/18 02:07:15;;;;;;;;;;;9.10;99.90;;;;;;5096349;28;20393;-74
2021/11/18 02:09:45;;;;;;;;;;;9.10;99.90;;;;;;5096252;28;19924;-75
2021/11/18 02:12:12;;;;;;;;;;;9.20;99.90;;;;;;5096840;28;19946;-75
2021/11/18 02:14:39;;;;;;;;;;;9.20;99.90;;;;;;5096290;28;20367;-75
2021/11/18 02:17:06;;;;;;;;;;;9.20;99.90;;;;;;5096234;28;19924;-75
2021/11/18 02:19:34;;;;;;;;;;;9.30;99.90;;;;;;5096488;28;19934;-75
2021/11/18 02:22:02;;;;;;;;;;;9.30;99.90;;;;;;5096160;28;20249;-75
2021/11/18 02:24:30;;;;;;;;;;;9.30;99.90;;;;;;5096133;28;19943;-75
2021/11/18 02:26:57;;;;;;;;;;;9.30;99.90;;;;;;5096005;28;19924;-75
2021/11/18 02:29:24;;;;;;;;;;;9.40;99.90;;;;;;5096224;28;20352;-75
2021/11/18 02:31:51;;;;;;;;;;;9.40;99.90;;;;;;5096145;28;19927;-75
2021/11/18 02:34:19;;;;;;;;;;;9.40;99.90;;;;;;5096379;28;19936;-75
2021/11/18 02:36:46;;;;;;;;;;;9.40;99.90;;;;;;5096018;28;19924;-75
2021/11/18 02:39:16;;;;;;;;;;;9.40;99.90;;;;;;5095911;28;19924;-75
2021/11/18 02:41:43;;;;;;;;;;;9.40;99.90;;;;;;5095971;28;19985;-74
2021/11/18 02:44:10;;;;;;;;;;;9.40;99.90;;;;;;5095749;28;19924;-74
2021/11/18 02:46:36;;;;;;;;;;;9.40;99.90;;;;;;5095953;28;19932;-74
2021/11/18 02:49:03;;;;;;;;;;;9.40;99.90;;;;;;5095688;28;19938;-74
2021/11/18 02:51:30;;;;;;;;;;;9.40;99.90;;;;;;5095645;28;19931;-74
2021/11/18 02:53:57;;;;;;;;;;;9.40;99.90;;;;;;5095698;28;19924;-74
2021/11/18 02:56:28;;;;;;;;;;;9.40;99.90;;;;;;5095246;28;19935;-74
2021/11/18 02:58:55;;;;;;;;;;;9.30;99.90;;;;;;5095759;28;19931;-74
2021/11/18 03:01:22;;;;;;;;;;;9.30;99.90;;;;;;5095393;28;19927;-74
2021/11/18 03:03:49;;;;;;;;;;;9.30;99.90;;;;;;5095599;28;19931;-74
2021/11/18 03:06:16;;;;;;;;;;;9.30;99.90;;;;;;5095796;28;19924;-74
2021/11/18 03:08:43;;;;;;;;;;;9.30;99.90;;;;;;5095434;28;19924;-74
2021/11/18 03:11:10;;;;;;;;;;;9.30;99.90;;;;;;5095311;28;19931;-74
2021/11/18 03:13:38;;;;;;;;;;;9.30;99.90;;;;;;5095501;28;19924;-74
2021/11/18 03:16:06;;;;;;;;;;;9.30;99.90;;;;;;5095475;28;20341;-73
2021/11/18 03:18:32;;;;;;;;;;;9.30;99.90;;;;;;5095160;28;20278;-74
2021/11/18 03:21:00;;;;;;;;;;;9.30;99.90;;;;;;5095275;28;19935;-74
2021/11/18 03:23:27;;;;;;;;;;;9.30;99.90;;;;;;5095176;28;19924;-74
2021/11/18 03:25:54;;;;;;;;;;;9.40;99.90;;;;;;5095158;28;19935;-74
2021/11/18 03:28:22;;;;;;;;;;;9.40;99.90;;;;;;5095112;28;19934;-74
2021/11/18 03:30:50;;;;;;;;;;;9.40;99.90;;;;;;5095050;28;20393;-74
2021/11/18 03:33:19;;;;;;;;;;;9.40;99.90;;;;;;5095205;28;19924;-74
2021/11/18 03:35:46;;;;;;;;;;;9.40;99.90;;;;;;5095268;28;19931;-74
2021/11/18 03:38:12;;;;;;;;;;;9.40;99.90;;;;;;5095488;28;20265;-74
2021/11/18 03:40:39;;;;;;;;;;;9.40;99.90;;;;;;5095038;28;19924;-74
2021/11/18 03:43:09;;;;;;;;;;;9.40;99.90;;;;;;5095001;28;20332;-73
2021/11/18 03:45:37;;;;;;;;;;;9.40;99.90;;;;;;5095181;28;20330;-74
2021/11/18 03:48:05;;;;;;;;;;;9.40;99.90;;;;;;5095034;28;20064;-74
2021/11/18 03:50:32;;;;;;;;;;;9.40;99.90;;;;;;5094811;28;19924;-73
2021/11/18 03:52:59;;;;;;;;;;;9.50;99.90;;;;;;5094965;28;19934;-74
2021/11/18 03:55:27;;;;;;;;;;;9.50;99.90;;;;;;5095134;28;19942;-75
2021/11/18 03:57:54;;;;;;;;;;;9.50;99.90;;;;;;5095752;28;19930;-76
2021/11/18 04:00:22;;;;;;;;;;;9.50;99.90;;;;;;5095234;28;19939;-77
2021/11/18 04:02:49;;;;;;;;;;;9.60;99.90;;;;;;5095638;28;19924;-77
2021/11/18 04:05:17;;;;;;;;;;;9.70;99.90;;;;;;5095114;28;19935;-74
2021/11/18 04:07:44;;;;;;;;;;;9.70;99.90;;;;;;5094828;28;19928;-74
2021/11/18 04:10:11;;;;;;;;;;;9.80;99.90;;;;;;5098124;28;20341;-73
2021/11/18 04:12:39;;;;;;;;;;;9.80;99.90;;;;;;5098809;28;19934;-74
2021/11/18 04:15:07;;;;;;;;;;;9.90;99.90;;;;;;5098719;28;19928;-73
2021/11/18 04:17:33;;;;;;;;;;;9.90;99.90;;;;;;5098683;28;20257;-74
2021/11/18 04:20:00;;;;;;;;;;;9.90;99.90;;;;;;5098583;28;19924;-74
2021/11/18 04:22:28;;;;;;;;;;;9.90;99.90;;;;;;5098505;28;19930;-74
2021/11/18 04:24:55;;;;;;;;;;;10.00;99.90;;;;;;5098678;28;19938;-74
2021/11/18 04:27:22;;;;;;;;;;;10.00;99.90;;;;;;5098419;28;20018;-74
2021/11/18 04:29:49;;;;;;;;;;;10.00;99.90;;;;;;5098536;28;19934;-74
2021/11/18 04:32:16;;;;;;;;;;;10.00;99.90;;;;;;5098106;28;20252;-74
2021/11/18 04:34:43;;;;;;;;;;;10.00;99.90;;;;;;5098153;28;19923;-74
2021/11/18 04:37:10;;;;;;;;;;;10.00;99.90;;;;;;5098366;28;20337;-74
2021/11/18 04:39:38;;;;;;;;;;;10.10;99.90;;;;;;5098438;28;19924;-74
2021/11/18 04:42:05;;;;;;;;;;;10.10;99.90;;;;;;5098296;28;19924;-74
2021/11/18 04:44:32;;;;;;;;;;;10.10;99.90;;;;;;5098053;28;19923;-74
2021/11/18 04:47:00;;;;;;;;;;;10.10;99.90;;;;;;5098067;28;19930;-74
2021/11/18 04:49:26;;;;;;;;;;;10.10;99.90;;;;;;5098005;28;19958;-74
2021/11/18 04:51:53;;;;;;;;;;;10.10;99.90;;;;;;5098130;28;19931;-74
2021/11/18 04:54:20;;;;;;;;;;;10.10;99.90;;;;;;5097922;28;20047;-74
2021/11/18 04:56:48;;;;;;;;;;;10.10;99.90;;;;;;5097958;28;19934;-74
2021/11/18 04:59:15;;;;;;;;;;;10.10;99.90;;;;;;5097909;28;20383;-74
2021/11/18 05:01:42;;;;;;;;;;;10.10;99.90;;;;;;5097817;28;19924;-74
2021/11/18 05:04:09;;;;;;;;;;;10.10;99.90;;;;;;5097649;28;19924;-74
2021/11/18 05:06:36;;;;;;;;;;;10.20;99.90;;;;;;5097822;28;19939;-74
2021/11/18 05:09:03;;;;;;;;;;;10.20;99.90;;;;;;5097811;28;19924;-75
2021/11/18 05:11:30;;;;;;;;;;;10.20;99.90;;;;;;5097577;28;19935;-74
2021/11/18 05:13:58;;;;;;;;;;;10.10;99.90;;;;;;5098082;28;19925;-74
2021/11/18 05:16:25;;;;;;;;;;;10.20;99.90;;;;;;5097398;28;20275;-74
2021/11/18 05:18:52;;;;;;;;;;;10.10;99.90;;;;;;5097360;28;19935;-73
2021/11/18 05:21:20;;;;;;;;;;;10.10;99.90;;;;;;5097238;28;19935;-73
2021/11/18 05:23:47;;;;;;;;;;;10.10;99.90;;;;;;5097465;28;19924;-74
2021/11/18 05:26:14;;;;;;;;;;;10.10;99.90;;;;;;5097229;28;20337;-74
2021/11/18 05:28:41;;;;;;;;;;;10.00;99.90;;;;;;5097049;28;20257;-74
2021/11/18 05:31:09;;;;;;;;;;;10.00;99.90;;;;;;5097225;28;19924;-74
2021/11/18 05:33:36;;;;;;;;;;;10.00;99.90;;;;;;5097389;28;19950;-74
2021/11/18 05:36:04;;;;;;;;;;;10.00;99.90;;;;;;5097250;28;20027;-74
2021/11/18 05:38:30;;;;;;;;;;;10.00;99.90;;;;;;5096993;28;19924;-74
2021/11/18 05:40:57;;;;;;;;;;;10.00;99.90;;;;;;5097437;28;19924;-74
2021/11/18 05:43:24;;;;;;;;;;;10.00;99.90;;;;;;5096965;28;19935;-73
2021/11/18 05:45:51;;;;;;;;;;;10.00;99.90;;;;;;5096818;28;19928;-73
2021/11/18 05:48:19;;;;;;;;;;;10.10;99.90;;;;;;5096759;28;20337;-74
2021/11/18 05:50:49;;;;;;;;;;;10.10;99.90;;;;;;5097137;28;20007;-74
2021/11/18 05:53:17;;;;;;;;;;;10.10;99.90;;;;;;5096985;28;19989;-74
2021/11/18 05:55:44;;;;;;;;;;;10.10;99.90;;;;;;5096684;28;19935;-74
2021/11/18 05:58:10;;;;;;;;;;;10.10;99.90;;;;;;5096930;28;19924;-74
2021/11/18 06:00:37;;;;;;;;;;;10.10;99.90;;;;;;5096805;28;19928;-74
2021/11/18 06:03:04;;;;;;;;;;;10.20;99.90;;;;;;5096566;28;19924;-74
2021/11/18 06:05:32;;;;;;;;;;;10.20;99.90;;;;;;5096692;28;19924;-74
2021/11/18 06:07:59;;;;;;;;;;;10.20;99.90;;;;;;5096676;28;20264;-74
2021/11/18 06:10:27;;;;;;;;;;;10.20;99.90;;;;;;5115187;28;19924;-74
2021/11/18 06:12:54;;;;;;;;;;;10.20;99.90;;;;;;5116870;28;19924;-74
2021/11/18 06:15:21;;;;;;;;;;;10.30;99.90;;;;;;5116966;28;19928;-74
2021/11/18 06:17:47;;;;;;;;;;;10.30;99.90;;;;;;5116765;28;19924;-74
2021/11/18 06:20:14;;;;;;;;;;;10.30;99.90;;;;;;5116973;28;19934;-74
2021/11/18 06:22:43;;;;;;;;;;;10.30;99.90;;;;;;5116682;28;19934;-74
2021/11/18 06:25:10;;;;;;;;;;;10.30;99.90;;;;;;5116628;28;19924;-74
2021/11/18 06:27:37;;;;;;;;;;;10.30;99.90;;;;;;5116275;28;19938;-74
2021/11/18 06:30:04;;;;;;;;;;;10.30;99.90;;;;;;5116647;28;20001;-74
2021/11/18 06:32:31;;;;;;;;;;;10.30;99.90;;;;;;5115710;28;19924;-74
2021/11/18 06:34:58;;;;;;;;;;;10.30;99.90;;;;;;5116357;28;20006;-74
2021/11/18 06:37:25;;;;;;;;;;;10.30;99.90;;;;;;5116211;28;19931;-74
2021/11/18 06:39:53;;;;;;;;;;;10.30;99.90;;;;;;5116487;28;19934;-74
2021/11/18 06:42:20;;;;;;;;;;;10.30;99.90;;;;;;5116199;28;19931;-74
2021/11/18 06:44:46;;;;;;;;;;;10.30;99.90;;;;;;5116343;28;19931;-75
2021/11/18 06:47:13;;;;;;;;;;;10.30;99.90;;;;;;5116268;28;19931;-75
2021/11/18 06:49:40;;;;;;;;;;;10.30;99.90;;;;;;5115996;28;20271;-74
2021/11/18 06:52:08;;;;;;;;;;;10.40;99.90;;;;;;5116185;28;19931;-74
2021/11/18 06:54:36;;;;;;;;;;;10.30;99.90;;;;;;5116265;28;19931;-74
2021/11/18 06:57:04;;;;;;;;;;;10.40;99.90;;;;;;5115961;28;19954;-74
2021/11/18 06:59:31;;;;;;;;;;;10.40;99.90;;;;;;5116159;28;19964;-74
2021/11/18 07:01:58;;;;;;;;;;;10.40;99.90;;;;;;5116294;28;20267;-74
2021/11/18 07:04:25;;;;;;;;;;;10.40;99.90;;;;;;5116160;28;20374;-74
2021/11/18 07:06:51;;;;;;;;;;;10.40;99.90;;;;;;5116196;28;19953;-73
2021/11/18 07:09:18;;;;;;;;;;;10.40;99.90;;;;;;5115795;28;19938;-75
2021/11/18 07:11:45;;;;;;;;;;;10.40;99.90;;;;;;5115907;28;19930;-73
2021/11/18 07:14:14;;;;;;;;;;;10.40;99.90;;;;;;5115774;28;19924;-73
2021/11/18 07:16:40;;;;;;;;;;;10.40;99.90;;;;;;5115703;28;19931;-73
2021/11/18 07:19:07;;;;;;;;;;;10.50;99.90;;;;;;5108676;28;20368;-74
2021/11/18 07:21:35;;;;;;;;;;;10.50;99.90;;;;;;5094098;28;19924;-73
2021/11/18 07:24:03;;;;;;;;;;;10.40;99.90;;;;;;5094674;28;20333;-74
2021/11/18 07:26:31;;;;;;;;;;;10.50;99.90;;;;;;5094783;28;19932;-73
2021/11/18 07:28:58;;;;;;;;;;;10.50;99.90;;;;;;5095266;28;19960;-73
2021/11/18 07:31:26;;;;;;;;;;;10.40;99.90;;;;;;5095368;28;19946;-73
2021/11/18 07:33:53;;;;;;;;;;;10.50;99.90;;;;;;5095192;28;19924;-74
2021/11/18 07:36:20;;;;;;;;;;;10.50;99.90;;;;;;5095255;28;19924;-73
2021/11/18 07:38:46;;;;;;;;;;;10.40;99.90;;;;;;5095178;28;20280;-73
2021/11/18 07:41:13;;;;;;;;;;;10.40;99.90;;;;;;5095066;28;20350;-73
2021/11/18 07:43:40;;;;;;;;;;;10.40;99.90;;;;;;5096093;28;19935;-73
2021/11/18 07:46:07;;;;;;;;;;;10.40;99.90;;;;;;5099381;28;19924;-73
2021/11/18 07:48:36;;;;;;;;;;;10.40;99.90;;;;;;5098985;28;19932;-73
2021/11/18 07:51:04;;;;;;;;;;;10.40;99.90;;;;;;5099325;28;19924;-73
2021/11/18 07:53:31;;;;;;;;;;;10.40;99.90;;;;;;5098978;28;19961;-73
2021/11/18 07:55:58;;;;;;;;;;;10.40;99.90;;;;;;5098923;28;19924;-73
2021/11/18 07:58:25;;;;;;;;;;;10.40;99.90;;;;;;5098902;28;19924;-73
2021/11/18 08:00:52;;;;;;;;;;;10.40;99.90;;;;;;5098985;28;19924;-72
2021/11/18 08:03:19;;;;;;;;;;;10.40;99.90;;;;;;5099204;28;19971;-72
2021/11/18 08:05:47;;;;;;;;;;;10.40;99.90;;;;;;5099043;28;19943;-72
2021/11/18 08:08:14;;;;;;;;;;;10.50;99.90;;;;;;5098728;28;19928;-72
2021/11/18 08:10:41;;;;;;;;;;;10.50;99.90;;;;;;5098796;28;19924;-72
2021/11/18 08:13:08;;;;;;;;;;;10.50;99.90;;;;;;5098945;28;19924;-72
2021/11/18 08:15:35;;;;;;;;;;;10.50;99.90;;;;;;5098886;28;19924;-72
2021/11/18 08:18:01;;;;;;;;;;;10.50;99.90;;;;;;5098485;28;19934;-72
2021/11/18 08:20:28;;;;;;;;;;;10.50;99.90;;;;;;5099046;28;19946;-72
2021/11/18 08:22:57;;;;;;;;;;;10.50;99.90;;;;;;5098933;28;19935;-72
2021/11/18 08:25:24;;;;;;;;;;;10.50;99.90;;;;;;5098433;28;20450;-72
2021/11/18 08:27:51;;;;;;;;;;;10.50;99.90;;;;;;5098613;28;19950;-71
2021/11/18 08:30:19;;;;;;;;;;;10.60;99.90;;;;;;5098480;28;19935;-72
2021/11/18 08:32:46;;;;;;;;;;;10.60;99.90;;;;;;5098558;28;19932;-71
2021/11/18 08:35:12;;;;;;;;;;;10.60;99.90;;;;;;5098594;28;20263;-71
2021/11/18 08:37:39;;;;;;;;;;;10.60;99.90;;;;;;5098396;28;19924;-71
2021/11/18 08:40:08;;;;;;;;;;;10.70;99.90;;;;;;5098408;28;19924;-71
2021/11/18 08:42:35;;;;;;;;;;;10.70;99.90;;;;;;5098080;28;20010;-71
2021/11/18 08:45:02;;;;;;;;;;;10.70;99.90;;;;;;5098161;28;19924;-71
2021/11/18 08:47:29;;;;;;;;;;;10.70;99.90;;;;;;5098122;28;20233;-71
2021/11/18 08:49:56;;;;;;;;;;;10.70;99.90;;;;;;5097934;28;19924;-72
2021/11/18 08:52:24;;;;;;;;;;;10.70;99.90;;;;;;5096813;28;19935;-71
2021/11/18 08:54:52;;;;;;;;;;;10.70;99.90;;;;;;5097275;28;19989;-71
2021/11/18 08:57:20;;;;;;;;;;;10.70;99.90;;;;;;5098017;28;19924;-71
2021/11/18 08:59:47;;;;;;;;;;;10.70;99.90;;;;;;5098078;28;19935;-71
2021/11/18 09:02:15;;;;;;;;;;;10.80;99.90;;;;;;5097575;28;19934;-71
2021/11/18 09:04:42;;;;;;;;;;;10.80;99.90;;;;;;5097894;28;19935;-71
2021/11/18 09:07:09;;;;;;;;;;;10.70;99.90;;;;;;5097893;28;19924;-71
2021/11/18 09:09:36;;;;;;;;;;;10.80;99.90;;;;;;5096850;28;20015;-71
2021/11/18 09:12:04;;;;;;;;;;;10.80;99.90;;;;;;5097540;28;19931;-71
2021/11/18 09:14:32;;;;;;;;;;;10.80;99.90;;;;;;5097069;28;20437;-71
2021/11/18 09:16:59;;;;;;;;;;;10.80;99.90;;;;;;5097392;28;19924;-71
2021/11/18 09:19:28;;;;;;;;;;;10.80;99.90;;;;;;5097435;28;20371;-71
2021/11/18 09:21:55;;;;;;;;;;;10.90;99.90;;;;;;5097859;28;19931;-71
2021/11/18 09:24:23;;;;;;;;;;;10.90;99.90;;;;;;5097222;28;20360;-71
2021/11/18 09:26:50;;;;;;;;;;;11.00;99.90;;;;;;5097141;28;20325;-71
2021/11/18 09:29:17;;;;;;;;;;;11.00;99.90;;;;;;5097394;28;20352;-72
2021/11/18 09:31:45;;;;;;;;;;;11.00;99.90;;;;;;5097135;28;19935;-72
2021/11/18 09:34:12;;;;;;;;;;;11.10;99.90;;;;;;5097336;28;19924;-72
2021/11/18 09:36:39;;;;;;;;;;;11.10;99.90;;;;;;5097115;28;19924;-72
2021/11/18 09:39:07;;;;;;;;;;;11.10;99.90;;;;;;5097387;28;19924;-72
2021/11/18 09:41:53;;;;;;;;;;;11.10;99.90;;;;;;5097288;28;19993;-72
2021/11/18 09:44:37;;;;;;;;;;;11.20;99.90;;;;;;5096967;28;19981;-72
2021/11/18 09:47:11;;;;;;;;;;;11.20;99.90;;;;;;5097348;28;19924;-72
2021/11/18 09:49:46;;;;;;;;;;;11.30;99.90;;;;;;5096969;28;19928;-72
2021/11/18 09:52:18;;;;;;;;;;;11.30;99.90;;;;;;5096670;28;20267;-72
2021/11/18 09:54:51;;;;;;;;;;;11.40;99.90;;;;;;5096686;28;19934;-72
2021/11/18 09:57:23;;;;;;;;;;;11.50;99.90;;;;;;5096962;28;19928;-72
2021/11/18 09:59:53;;;;;;;;;;;11.50;99.90;;;;;;5096744;28;19924;-72
2021/11/18 10:02:26;;;;;;;;;;;11.50;99.90;;;;;;5096747;28;19998;-72
2021/11/18 10:04:54;;;;;;;;;;;11.50;99.90;;;;;;5096563;28;19924;-73
2021/11/18 10:07:22;;;;;;;;;;;11.50;99.90;;;;;;5095577;28;20291;-73
2021/11/18 10:09:50;;;;;;;;;;;11.60;99.90;;;;;;5096459;28;19928;-75
2021/11/18 10:12:25;;;;;;;;;;;11.60;99.90;;;;;;5096666;28;19934;-75
2021/11/18 10:14:56;;;;;;;;;;;11.60;99.90;;;;;;5096362;28;19924;-75
2021/11/18 10:17:29;;;;;;;;;;;11.70;99.90;;;;;;5096430;28;20263;-75
2021/11/18 10:19:58;;;;;;;;;;;11.70;99.90;;;;;;5096291;28;20506;-76
2021/11/18 10:22:25;;;;;;;;;;;11.70;99.90;;;;;;5096226;28;19977;-75
2021/11/18 10:24:53;;;;;;;;;;;11.70;99.90;;;;;;5096222;28;20378;-78
2021/11/18 10:27:21;;;;;;;;;;;11.70;99.90;;;;;;5096050;28;19924;-79
2021/11/18 10:29:55;;;;;;;;;;;11.70;99.90;;;;;;5096198;28;20356;-76
2021/11/18 10:32:23;;;;;;;;;;;11.70;99.90;;;;;;5095985;28;19928;-77
2021/11/18 10:34:52;;;;;;;;;;;11.80;99.90;;;;;;5096030;28;19994;-78
2021/11/18 10:37:21;;;;;;;;;;;11.80;99.90;;;;;;5096232;28;19928;-77
2021/11/18 10:39:56;;;;;;;;;;;11.80;99.90;;;;;;5095991;28;19924;-77
2021/11/18 10:42:28;;;;;;;;;;;11.80;99.90;;;;;;5095873;28;20333;-77
2021/11/18 10:44:56;;;;;;;;;;;11.80;99.90;;;;;;5096205;28;19924;-77
2021/11/18 10:47:23;;;;;;;;;;;11.90;99.90;;;;;;5095762;28;19936;-77
2021/11/18 10:49:55;;;;;;;;;;;11.90;99.90;;;;;;5095667;28;20016;-77
2021/11/18 10:52:23;;;;;;;;;;;11.90;99.90;;;;;;5095547;28;19938;-77
2021/11/18 10:54:50;;;;;;;;;;;12.00;99.90;;;;;;5096226;28;19934;-79
2021/11/18 10:57:18;;;;;;;;;;;12.00;99.90;;;;;;5095547;28;19924;-77
2021/11/18 10:59:45;;;;;;;;;;;12.00;99.90;;;;;;5095806;28;19935;-78
2021/11/18 11:02:24;;;;;;;;;;;12.00;99.90;;;;;;5095555;28;20257;-78
2021/11/18 11:04:53;;;;;;;;;;;12.00;99.90;;;;;;5095477;28;19928;-78
2021/11/18 11:07:33;;;;;;;;;;;12.00;99.90;;;;;;5095501;28;19936;-77
2021/11/18 11:09:59;;;;;;;;;;;12.00;99.90;;;;;;5095481;28;20260;-78
2021/11/18 11:12:29;;;;;;;;;;;12.00;99.90;;;;;;5095938;28;20344;-78
2021/11/18 11:15:01;;;;;;;;;;;12.00;99.90;;;;;;5095599;28;19924;-78
2021/11/18 11:17:46;;;;;;;;;;;12.00;99.90;;;;;;5095174;28;19973;-78
2021/11/18 11:20:15;;;;;;;;;;;12.10;99.90;;;;;;5095529;28;19924;-78
2021/11/18 11:22:45;;;;;;;;;;;12.10;99.90;;;;;;5095197;28;19931;-80
2021/11/18 11:25:32;;;;;;;;;;;12.10;99.90;;;;;;5095796;28;19924;-79
2021/11/18 11:28:02;;;;;;;;;;;12.10;99.90;;;;;;5095420;28;19928;-78
2021/11/18 11:30:31;;;;;;;;;;;12.10;99.90;;;;;;5095248;28;19963;-78
2021/11/18 11:32:59;;;;;;;;;;;12.10;99.90;;;;;;5095175;28;19935;-78
2021/11/18 11:35:29;;;;;;;;;;;12.10;99.90;;;;;;5095486;28;19924;-78
2021/11/18 11:38:03;;;;;;;;;;;12.10;99.90;;;;;;5095242;28;19924;-78
2021/11/18 11:40:33;;;;;;;;;;;12.10;99.90;;;;;;5095335;28;19930;-78
2021/11/18 11:43:04;;;;;;;;;;;12.10;99.90;;;;;;5095056;28;19924;-79
2021/11/18 11:45:46;;;;;;;;;;;12.10;99.90;;;;;;5095145;28;19934;-79
2021/11/18 11:48:34;;;;;;;;;;;12.10;99.90;;;;;;5095053;28;19924;-79
2021/11/18 11:51:20;;;;;;;;;;;12.10;99.90;;;;;;5095048;28;20355;-78
2021/11/18 11:53:53;;;;;;;;;;;12.10;99.90;;;;;;5094953;28;19950;-78
2021/11/18 11:56:22;;;;;;;;;;;12.10;99.90;;;;;;5094984;28;19924;-79
2021/11/18 11:58:51;;;;;;;;;;;12.10;99.90;;;;;;5094963;28;19928;-79
2021/11/18 12:01:20;;;;;;;;;;;12.10;99.90;;;;;;5094985;28;19935;-79
2021/11/18 12:03:51;;;;;;;;;;;12.10;99.90;;;;;;5095023;28;19924;-79
2021/11/18 12:06:21;;;;;;;;;;;12.10;99.90;;;;;;5094823;28;19924;-79
2021/11/18 12:08:51;;;;;;;;;;;12.10;99.90;;;;;;5095051;28;19932;-78
2021/11/18 12:11:19;;;;;;;;;;;12.10;99.90;;;;;;5095012;28;19925;-79
2021/11/18 12:13:52;;;;;;;;;;;12.20;99.90;;;;;;5094783;28;19931;-79
2021/11/18 12:16:21;;;;;;;;;;;12.10;99.90;;;;;;5094961;28;20283;-79
2021/11/18 12:18:48;;;;;;;;;;;12.20;99.90;;;;;;5094865;28;20359;-81
2021/11/18 12:21:16;;;;;;;;;;;12.20;99.90;;;;;;5094741;28;19932;-81
2021/11/18 12:24:01;;;;;;;;;;;12.20;99.90;;;;;;5094915;28;19947;-80
2021/11/18 12:26:28;;;;;;;;;;;12.20;99.90;;;;;;5094822;28;19924;-78
2021/11/18 12:28:58;;;;;;;;;;;12.20;99.90;;;;;;5094584;28;19954;-79
2021/11/18 12:31:29;;;;;;;;;;;12.20;99.90;;;;;;5098244;28;20366;-78
2021/11/18 12:33:58;;;;;;;;;;;12.30;99.90;;;;;;5098587;28;19925;-78
2021/11/18 12:36:39;;;;;;;;;;;12.30;99.90;;;;;;5098526;28;19934;-79
2021/11/18 12:39:36;;;;;;;;;;;12.30;99.90;;;;;;5098125;28;19930;-79
2021/11/18 12:42:23;;;;;;;;;;;12.30;99.90;;;;;;5098761;28;20272;-77
2021/11/18 12:44:54;;;;;;;;;;;12.30;99.90;;;;;;5098222;28;19928;-77
2021/11/18 12:47:22;;;;;;;;;;;12.30;99.90;;;;;;5098443;28;19938;-78
2021/11/18 12:50:13;;;;;;;;;;;12.20;99.90;;;;;;5098113;28;19935;-77
2021/11/18 12:52:40;;;;;;;;;;;12.20;99.90;;;;;;5087577;28;19924;-79
2021/11/18 12:55:25;;;;;;;;;;;12.20;99.90;;;;;;5097876;28;20374;-77
2021/11/18 12:57:54;;;;;;;;;;;12.10;99.90;;;;;;5098066;28;19934;-77
2021/11/18 13:00:44;;;;;;;;;;;12.10;99.90;;;;;;5097847;28;20369;-76
2021/11/18 13:03:13;;;;;;;;;;;12.10;99.90;;;;;;5087233;28;19924;-76
2021/11/18 13:05:50;;;;;;;;;;;12.10;99.90;;;;;;5097947;28;19936;-76
2021/11/18 13:08:36;;;;;;;;;;;12.00;99.90;;;;;;5097804;28;19930;-76
2021/11/18 13:11:18;;;;;;;;;;;12.00;99.90;;;;;;5097674;28;19930;-76
2021/11/18 13:13:47;;;;;;;;;;;12.10;99.90;;;;;;5097460;28;19928;-75
2021/11/18 13:16:28;;;;;;;;;;;12.10;99.90;;;;;;5097457;28;20024;-76
2021/11/18 13:18:59;;;;;;;;;;;12.10;99.90;;;;;;5097656;28;20361;-76
2021/11/18 13:21:26;;;;;;;;;;;12.10;99.90;;;;;;5097872;28;19924;-75
2021/11/18 13:23:54;;;;;;;;;;;12.10;99.90;;;;;;5097579;28;19924;-75
2021/11/18 13:26:23;;;;;;;;;;;12.10;99.90;;;;;;5097557;28;19924;-76
2021/11/18 13:29:08;;;;;;;;;;;12.10;99.90;;;;;;5097258;28;19928;-74
2021/11/18 13:31:36;;;;;;;;;;;12.10;99.90;;;;;;5097585;28;19934;-75
2021/11/18 13:34:10;;;;;;;;;;;12.00;99.90;;;;;;5097087;28;19947;-74
2021/11/18 13:36:37;;;;;;;;;;;12.10;99.90;;;;;;5097632;28;19934;-75
2021/11/18 13:39:05;;;;;;;;;;;12.10;99.90;;;;;;5097148;28;19935;-74
2021/11/18 13:41:34;;;;;;;;;;;12.10;99.90;;;;;;5097077;28;19924;-74
2021/11/18 13:44:02;;;;;;;;;;;12.10;99.90;;;;;;5096968;28;19974;-74
2021/11/18 13:46:32;;;;;;;;;;;12.10;99.90;;;;;;5097087;28;20330;-74
2021/11/18 13:48:59;;;;;;;;;;;12.10;99.90;;;;;;5096941;28;20005;-74
2021/11/18 13:51:34;;;;;;;;;;;12.10;99.90;;;;;;5096874;28;19924;-73
2021/11/18 13:54:01;;;;;;;;;;;12.10;99.90;;;;;;5097051;28;20340;-73
2021/11/18 13:56:33;;;;;;;;;;;12.10;99.90;;;;;;5096702;28;20356;-73
2021/11/18 13:59:01;;;;;;;;;;;12.10;99.90;;;;;;5096898;28;19939;-73
2021/11/18 14:01:31;;;;;;;;;;;12.10;99.90;;;;;;5096781;28;19924;-73
2021/11/18 14:03:58;;;;;;;;;;;12.20;99.90;;;;;;5096620;28;19924;-73
2021/11/18 14:06:26;;;;;;;;;;;12.10;99.90;;;;;;5096662;28;20006;-73
2021/11/18 14:08:54;;;;;;;;;;;12.10;99.90;;;;;;5096667;28;20033;-73
2021/11/18 14:11:22;;;;;;;;;;;12.20;99.90;;;;;;5096668;28;19935;-73
2021/11/18 14:13:49;;;;;;;;;;;12.20;99.90;;;;;;5096516;28;19924;-73
2021/11/18 14:16:25;;;;;;;;;;;12.20;99.90;;;;;;5096530;28;19924;-73
2021/11/18 14:19:01;;;;;;;;;;;12.20;99.90;;;;;;5096515;28;20261;-73
2021/11/18 14:21:29;;;;;;;;;;;12.20;99.90;;;;;;5096564;28;20263;-73
2021/11/18 14:24:00;;;;;;;;;;;12.20;99.90;;;;;;5096306;28;19924;-73
2021/11/18 14:26:32;;;;;;;;;;;12.20;99.90;;;;;;5096156;28;20375;-73
2021/11/18 14:29:20;;;;;;;;;;;12.20;99.90;;;;;;5096027;28;20023;-73
2021/11/18 14:31:56;;;;;;;;;;;12.20;99.90;;;;;;5096321;28;19924;-73